Terminal Aerodrome Forecast
Issued by NWS Melbourne, FL

Home | Current Version | Previous Version | Text Only | Print | Product List | Glossary On
Versions: 1 2 3 4 5 6 7 8 9 10 11 12 13 14 15 16 17 18 19 20 21 22 23 24
365
FTUS42 KMLB 291502 AAA
TAFMCO
TAF AMD
KMCO 291502Z 2915/3012 25004KT P6SM FEW040
     FM291800 17007KT P6SM VCTS SCT030CB BKN050
      TEMPO 2919/2921 3SM TSRA BKN030CB
     FM292200 15007KT P6SM SCT050 BKN250
     FM300200 20003KT P6SM FEW060 SCT250=

USA.gov is the U.S. government's official web portal to all federal, state and local government web resources and services.